Ballinger, Texas
Current Conditions -  °F | °C
As of 8:55 PM on Monday 22 Dec 2014 (Local Time) from KCOM Reporting Station
Clear Clear  
Wind Chill: 53°   Ceiling: Unl
Heat Index: 53°   Visibility: 10mi
Dew Point: 42°   Wind: 3mph
Humidity: 67%   Direction: 80°E
Pressure: 29.68"   Gusts: NA
Location:  31.74°N, 99.95°W
Report Text: KCOM 230255Z AUTO 08003KT 10SM CLR 12/06 A2968 RMK AO2 T01170057
Loading
Personal Weather Stations






























Interactive Weather Map New forecast layout! Learn more

10-Day Weather Forecast

Advertisements
Track Severe Weather on mobile